Mediterranean Sea — WDG229 — position and weather

sailwx.info

Track history (hours):
 
Tides and Currents Weather Stations Pressure Air Temp Water Temp Dewpoint Dewpoint Depression Visibility Wind Speed Wind Dir Waves Ship Positions

Mediterranean Sea

Last reported at 2014-Oct-31 15:33 UTC. Time now 2014-Oct-31 19:30 UTC.
Position N 41°22' W 071°10'.

Length 33 m; draft 6 m.

Type: Wing in ground effect craft. MMSI: 367010390.

Date/timePositionNaut miles runAvg speedWind from/ knotsBaromVisibWave heightAir tempDewpointWater temp
2014-Oct-31 15:33N 41°22' W 071°10'6 6.4
2014-Oct-31 14:33N 41°19' W 071°18'6 6.3
2014-Oct-31 13:33N 41°18' W 071°26'7 6.8
2014-Oct-31 12:33N 41°18' W 071°35'7 7.0
2014-Oct-31 11:34N 41°16' W 071°44'7 7.0
2014-Oct-31 10:33N 41°15' W 071°53'7 6.8
2014-Oct-31 09:33N 41°14' W 072°02'6 5.7
2014-Oct-31 08:33N 41°14' W 072°10'5 5.1
2014-Oct-31 07:34N 41°12' W 072°16'5 4.9
2014-Oct-31 06:33N 41°10' W 072°22'5 5.1
2014-Oct-31 05:33N 41°09' W 072°29'6 5.7
2014-Oct-31 04:33N 41°08' W 072°36'6 6.5
2014-Oct-31 03:33N 41°06' W 072°45'7 6.8
2014-Oct-31 02:33N 41°04' W 072°53'7 7.1
2014-Oct-31 01:33N 41°02' W 073°02'10 7.4
2014-Oct-31 00:13N 41°01' W 073°15'5 7.3
2014-Oct-30 23:34N 41°01' W 073°22'7 6.8
2014-Oct-30 22:33N 40°59' W 073°30'4 3.9
2014-Oct-30 21:31N 40°57' W 073°35'15 6.6
2014-Oct-30 19:14N 40°48' W 073°51'4 6.1
2014-Oct-30 18:33N 40°47' W 073°56'5 5.1
2014-Oct-30 17:34N 40°42' W 073°60'4 3.9
2014-Oct-30 16:34N 40°39' W 074°03'3 3.2
2014-Oct-30 15:34N 40°39' W 074°07'4 0.2
2014-Oct-29 19:33N 40°38' W 074°12'1 1.4
2014-Oct-29 18:32N 40°39' W 074°10'0 0.0
2014-Oct-29 17:29N 40°39' W 074°10'0 0.0
2014-Oct-29 16:23N 40°39' W 074°10'0 0.0
2014-Oct-29 15:29N 40°39' W 074°10'0 0.0
2014-Oct-29 14:33N 40°39' W 074°10'0 0.0
2014-Oct-29 13:33N 40°39' W 074°10'3 1.0
2014-Oct-29 10:30N 40°36' W 074°12'6 6.0
2014-Oct-29 09:33N 40°39' W 074°06'2 1.9
2014-Oct-29 08:33N 40°39' W 074°03'0 0.1
2014-Oct-29 07:33N 40°39' W 074°03'0 0.1
2014-Oct-29 06:33N 40°39' W 074°03'7 6.7
2014-Oct-29 05:33N 40°45' W 073°58'7 6.9
2014-Oct-29 04:32N 40°48' W 073°50'9 8.4
2014-Oct-29 03:31N 40°54' W 073°41'1010.4
2014-Oct-29 02:33N 40°59' W 073°30'1010.1
2014-Oct-29 01:33N 41°01' W 073°17'1010.2
2014-Oct-29 00:33N 41°03' W 073°04'1010.1
2014-Oct-28 23:33N 41°05' W 072°51'10 9.6
2014-Oct-28 22:33N 41°07' W 072°38'9 8.6
2014-Oct-28 21:33N 41°10' W 072°27'4 3.5
2014-Oct-28 20:33N 41°11' W 072°23'9 8.8
2014-Oct-28 19:33N 41°14' W 072°12'1010.1
2014-Oct-28 18:33N 41°14' W 071°58'1010.4
2014-Oct-28 17:33N 41°16' W 071°45'1010.2
2014-Oct-28 16:33N 41°18' W 071°31'1010.1
2014-Oct-28 15:33N 41°19' W 071°18'10 9.9
2014-Oct-28 14:33N 41°23' W 071°06'9 9.1
2014-Oct-28 13:33N 41°29' W 070°56'9 8.9
2014-Oct-28 12:33N 41°33' W 070°46'9 9.3
2014-Oct-28 11:33N 41°41' W 070°40'11 8.4
2014-Oct-28 10:17N 41°47' W 070°28'5 7.2
2014-Oct-28 09:31N 41°53' W 070°29'10 9.3
2014-Oct-28 08:24N 42°03' W 070°30'8 9.8
2014-Oct-28 07:33N 42°11' W 070°33'1010.1
2014-Oct-28 06:32N 42°21' W 070°35'40 1.0
2014-Oct-26 14:31N 43°02' W 070°35'7 7.0
2014-Oct-26 13:33N 43°04' W 070°44'1 0.1
2014-Oct-25 18:12N 43°05' W 070°45'3 4.3
2014-Oct-25 17:33N 43°03' W 070°42'14 4.7
2014-Oct-25 14:32N 42°50' W 070°36'9 6.1
2014-Oct-25 13:08N 42°42' W 070°31'  
Track history (hours):
 
Tides and Currents Weather Stations Pressure Air Temp Water Temp Dewpoint Dewpoint Depression Visibility Wind Speed Wind Dir Waves Ship Positions

Mediterranean Sea

Last reported at 2014-Oct-31 15:33 UTC. Time now 2014-Oct-31 19:30 UTC.
Position N 41°22' W 071°10'.

Length 33 m; draft 6 m.

Type: Wing in ground effect craft. MMSI: 367010390.

Date/timePositionNaut miles runAvg speedWind from/ knotsBaromVisibWave heightAir tempDewpointWater temp
2014-Oct-31 15:33N 41°22' W 071°10'6 6.4
2014-Oct-31 14:33N 41°19' W 071°18'6 6.3
2014-Oct-31 13:33N 41°18' W 071°26'7 6.8
2014-Oct-31 12:33N 41°18' W 071°35'7 7.0
2014-Oct-31 11:34N 41°16' W 071°44'7 7.0
2014-Oct-31 10:33N 41°15' W 071°53'7 6.8
2014-Oct-31 09:33N 41°14' W 072°02'6 5.7
2014-Oct-31 08:33N 41°14' W 072°10'5 5.1
2014-Oct-31 07:34N 41°12' W 072°16'5 4.9
2014-Oct-31 06:33N 41°10' W 072°22'5 5.1
2014-Oct-31 05:33N 41°09' W 072°29'6 5.7
2014-Oct-31 04:33N 41°08' W 072°36'6 6.5
2014-Oct-31 03:33N 41°06' W 072°45'7 6.8
2014-Oct-31 02:33N 41°04' W 072°53'7 7.1
2014-Oct-31 01:33N 41°02' W 073°02'10 7.4
2014-Oct-31 00:13N 41°01' W 073°15'5 7.3
2014-Oct-30 23:34N 41°01' W 073°22'7 6.8
2014-Oct-30 22:33N 40°59' W 073°30'4 3.9
2014-Oct-30 21:31N 40°57' W 073°35'15 6.6
2014-Oct-30 19:14N 40°48' W 073°51'4 6.1
2014-Oct-30 18:33N 40°47' W 073°56'5 5.1
2014-Oct-30 17:34N 40°42' W 073°60'4 3.9
2014-Oct-30 16:34N 40°39' W 074°03'3 3.2
2014-Oct-30 15:34N 40°39' W 074°07'4 0.2
2014-Oct-29 19:33N 40°38' W 074°12'1 1.4
2014-Oct-29 18:32N 40°39' W 074°10'0 0.0
2014-Oct-29 17:29N 40°39' W 074°10'0 0.0
2014-Oct-29 16:23N 40°39' W 074°10'0 0.0
2014-Oct-29 15:29N 40°39' W 074°10'0 0.0
2014-Oct-29 14:33N 40°39' W 074°10'0 0.0
2014-Oct-29 13:33N 40°39' W 074°10'3 1.0
2014-Oct-29 10:30N 40°36' W 074°12'6 6.0
2014-Oct-29 09:33N 40°39' W 074°06'2 1.9
2014-Oct-29 08:33N 40°39' W 074°03'0 0.1
2014-Oct-29 07:33N 40°39' W 074°03'0 0.1
2014-Oct-29 06:33N 40°39' W 074°03'7 6.7
2014-Oct-29 05:33N 40°45' W 073°58'7 6.9
2014-Oct-29 04:32N 40°48' W 073°50'9 8.4
2014-Oct-29 03:31N 40°54' W 073°41'1010.4
2014-Oct-29 02:33N 40°59' W 073°30'1010.1
2014-Oct-29 01:33N 41°01' W 073°17'1010.2
2014-Oct-29 00:33N 41°03' W 073°04'1010.1
2014-Oct-28 23:33N 41°05' W 072°51'10 9.6
2014-Oct-28 22:33N 41°07' W 072°38'9 8.6
2014-Oct-28 21:33N 41°10' W 072°27'4 3.5
2014-Oct-28 20:33N 41°11' W 072°23'9 8.8
2014-Oct-28 19:33N 41°14' W 072°12'1010.1
2014-Oct-28 18:33N 41°14' W 071°58'1010.4
2014-Oct-28 17:33N 41°16' W 071°45'1010.2
2014-Oct-28 16:33N 41°18' W 071°31'1010.1
2014-Oct-28 15:33N 41°19' W 071°18'10 9.9
2014-Oct-28 14:33N 41°23' W 071°06'9 9.1
2014-Oct-28 13:33N 41°29' W 070°56'9 8.9
2014-Oct-28 12:33N 41°33' W 070°46'9 9.3
2014-Oct-28 11:33N 41°41' W 070°40'11 8.4
2014-Oct-28 10:17N 41°47' W 070°28'5 7.2
2014-Oct-28 09:31N 41°53' W 070°29'10 9.3
2014-Oct-28 08:24N 42°03' W 070°30'8 9.8
2014-Oct-28 07:33N 42°11' W 070°33'1010.1
2014-Oct-28 06:32N 42°21' W 070°35'40 1.0
2014-Oct-26 14:31N 43°02' W 070°35'7 7.0
2014-Oct-26 13:33N 43°04' W 070°44'1 0.1
2014-Oct-25 18:12N 43°05' W 070°45'3 4.3
2014-Oct-25 17:33N 43°03' W 070°42'14 4.7
2014-Oct-25 14:32N 42°50' W 070°36'9 6.1
2014-Oct-25 13:08N 42°42' W 070°31'  

Dump ship's entire track history